Time;durP1;ratioP1;P1;durP2;ratioP2;P2;SDS_P1;SDS_P2;PMS_P1;PMS_P2;Temp;Humidity;BMP_temperature;BMP_pressure;BME280_temperature;BME280_humidity;BME280_pressure;Samples;Min_cycle;Max_cycle;Signal;HPM_P1;HPM_P2
2022/06/20 00:00:30;;;;;;;10.72;3.70;;;;;;;16.72;76.76;101279.44;1757546;82;21133;-58
2022/06/20 00:02:59;;;;;;;7.83;2.60;;;;;;;16.74;76.58;101279.36;1757486;82;21064;-58
2022/06/20 00:05:34;;;;;;;6.50;2.90;;;;;;;16.78;76.32;101276.91;1757453;82;21674;-58
2022/06/20 00:08:03;;;;;;;5.30;2.80;;;;;;;16.82;76.07;101275.81;1757572;82;21066;-57
2022/06/20 00:10:33;;;;;;;6.33;3.22;;;;;;;16.86;75.75;101271.20;1757527;82;21062;-58
2022/06/20 00:13:02;;;;;;;7.58;3.30;;;;;;;16.86;75.84;101273.38;1757498;82;21046;-58
2022/06/20 00:15:36;;;;;;;6.78;3.33;;;;;;;16.86;75.71;101269.39;1763555;80;21561;-58
2022/06/20 00:18:07;;;;;;;7.25;3.50;;;;;;;16.85;75.67;101269.00;1773571;81;21537;-58
2022/06/20 00:20:36;;;;;;;5.97;3.40;;;;;;;16.85;75.68;101272.98;1773459;81;21572;-58
2022/06/20 00:23:05;;;;;;;9.78;3.55;;;;;;;16.84;75.59;101273.95;1773436;81;21035;-58
2022/06/20 00:25:34;;;;;;;5.00;3.37;;;;;;;16.82;75.77;101270.48;1773532;81;21059;-58
2022/06/20 00:28:03;;;;;;;4.97;3.12;;;;;;;16.84;75.85;101268.63;1773727;81;21506;-58
2022/06/20 00:30:32;;;;;;;4.03;2.85;;;;;;;16.83;76.16;101257.59;1773526;81;21138;-58
2022/06/20 00:33:00;;;;;;;5.35;2.75;;;;;;;16.82;76.05;101257.19;1773575;81;21086;-58
2022/06/20 00:35:29;;;;;;;5.67;3.08;;;;;;;16.79;76.17;101246.72;1773575;81;21071;-58
2022/06/20 00:38:00;;;;;;;6.20;2.80;;;;;;;16.75;76.48;101243.86;1773569;81;21616;-59
2022/06/20 00:40:34;;;;;;;5.28;3.35;;;;;;;16.74;76.49;101248.77;1773665;81;21043;-58
2022/06/20 00:43:05;;;;;;;5.20;3.00;;;;;;;16.75;76.48;101247.84;1772857;81;21208;-58
2022/06/20 00:45:36;;;;;;;4.95;3.20;;;;;;;16.77;76.43;101248.61;1773602;81;21494;-59
2022/06/20 00:48:09;;;;;;;6.83;2.95;;;;;;;16.76;76.40;101238.91;1773653;81;21506;-58
2022/06/20 00:50:37;;;;;;;6.20;3.30;;;;;;;16.74;76.33;101236.81;1773630;81;21133;-58
2022/06/20 00:53:25;;;;;;;6.80;3.60;;;;;;;16.71;76.37;101239.19;1773526;81;21058;-59
2022/06/20 00:56:12;;;;;;;7.37;4.35;;;;;;;16.68;76.40;101234.52;1773624;81;21525;-59
2022/06/20 00:59:02;;;;;;;7.00;3.42;;;;;;;16.66;76.42;101232.41;1752573;81;21173;-59
2022/06/20 01:01:37;;;;;;;6.17;3.90;;;;;;;16.63;76.57;101223.27;1773553;81;21115;-59
2022/06/20 01:04:09;;;;;;;7.42;4.50;;;;;;;16.58;76.75;101224.39;1773560;81;21126;-59
2022/06/20 01:06:40;;;;;;;7.28;4.30;;;;;;;16.57;76.73;101225.81;1769650;81;21067;-59
2022/06/20 01:09:11;;;;;;;7.55;3.52;;;;;;;16.53;77.23;101222.95;1773416;81;21145;-59
2022/06/20 01:11:48;;;;;;;6.20;3.27;;;;;;;16.49;77.24;101224.03;1773663;81;21031;-59
2022/06/20 01:14:26;;;;;;;7.22;3.60;;;;;;;16.46;77.08;101221.57;1773516;81;21514;-59
2022/06/20 01:16:58;;;;;;;4.50;3.05;;;;;;;16.44;76.92;101218.14;1762861;81;21098;-59
2022/06/20 01:19:29;;;;;;;4.85;3.17;;;;;;;16.40;77.29;101220.11;1757647;82;21082;-59
2022/06/20 01:21:59;;;;;;;9.28;3.00;;;;;;;16.34;77.54;101212.46;1755540;82;21058;-59
2022/06/20 01:24:31;;;;;;;6.28;2.92;;;;;;;16.32;77.55;101213.02;1757635;82;21153;-59
2022/06/20 01:27:15;;;;;;;11.33;3.12;;;;;;;16.30;77.64;101206.94;1756009;82;21133;-59
2022/06/20 01:29:44;;;;;;;5.33;3.45;;;;;;;16.31;77.57;101210.00;1756577;82;21070;-59
2022/06/20 01:32:13;;;;;;;4.20;2.90;;;;;;;16.31;77.70;101211.33;1757667;82;21090;-59
2022/06/20 01:34:42;;;;;;;4.22;2.90;;;;;;;16.32;77.62;101211.70;1757598;82;21074;-59
2022/06/20 01:37:29;;;;;;;4.08;3.02;;;;;;;16.35;77.38;101212.86;1757501;82;21620;-58
2022/06/20 01:40:00;;;;;;;4.12;3.15;;;;;;;16.36;77.33;101214.59;1757576;82;21042;-59
2022/06/20 01:42:30;;;;;;;5.33;3.20;;;;;;;16.38;77.32;101218.87;1756007;82;21062;-59
2022/06/20 01:45:57;;;;;;;4.28;3.25;;;;;;;16.40;77.25;101215.65;1757691;82;21513;-58
2022/06/20 01:47:37;;;;;;;6.62;3.50;;;;;;;16.44;77.11;101212.35;1754082;82;21078;-59
2022/06/20 01:50:08;;;;;;;11.00;4.05;;;;;;;16.46;77.27;101213.12;1757581;82;21136;-59
2022/06/20 01:52:39;;;;;;;7.40;3.52;;;;;;;16.47;77.58;101213.97;1757674;82;21117;-59
2022/06/20 01:55:17;;;;;;;8.35;3.08;;;;;;;16.46;77.78;101212.27;1757710;82;21075;-58
2022/06/20 01:57:48;;;;;;;7.33;3.15;;;;;;;16.48;77.73;101213.88;1757405;82;21247;-59
2022/06/20 02:00:23;;;;;;;4.87;2.83;;;;;;;16.51;77.62;101208.41;1757727;82;21070;-59
2022/06/20 02:02:55;;;;;;;4.62;3.20;;;;;;;16.57;77.34;101212.52;1757587;82;21086;-58
2022/06/20 02:05:26;;;;;;;6.45;3.35;;;;;;;16.63;77.41;101212.64;1757565;82;21066;-59
2022/06/20 02:07:57;;;;;;;6.40;3.47;;;;;;;16.64;77.53;101207.72;1757624;82;21524;-58
2022/06/20 02:10:31;;;;;;;5.65;2.95;;;;;;;16.70;77.60;101210.86;1757637;82;21164;-59
2022/06/20 02:13:02;;;;;;;4.78;3.35;;;;;;;16.77;77.48;101204.73;1756255;82;21062;-59
2022/06/20 02:15:34;;;;;;;8.68;3.83;;;;;;;16.88;77.25;101201.01;1757503;82;21085;-59
2022/06/20 02:18:05;;;;;;;7.55;3.80;;;;;;;16.97;77.15;101199.14;1770317;80;21131;-59
2022/06/20 02:20:38;;;;;;;5.42;3.77;;;;;;;17.04;77.10;101204.09;1773012;81;21594;-58
2022/06/20 02:23:07;;;;;;;5.60;3.70;;;;;;;17.10;77.00;101205.08;1773111;81;21178;-59
2022/06/20 02:25:36;;;;;;;6.58;3.67;;;;;;;17.16;76.90;101191.41;1772943;81;21107;-59
2022/06/20 02:28:08;;;;;;;5.90;3.92;;;;;;;17.24;76.78;101202.44;1772986;81;21075;-59
2022/06/20 02:30:38;;;;;;;5.78;3.65;;;;;;;17.33;76.57;101195.70;1772986;81;21166;-59
2022/06/20 02:33:15;;;;;;;6.60;3.60;;;;;;;17.41;76.37;101194.79;1772957;81;21558;-59
2022/06/20 02:35:45;;;;;;;8.83;3.50;;;;;;;17.49;76.20;101190.33;1771832;81;21676;-59
2022/06/20 02:38:14;;;;;;;5.53;3.58;;;;;;;17.68;75.97;101193.55;1773028;81;21617;-58
2022/06/20 02:40:43;;;;;;;9.53;4.42;;;;;;;17.85;75.76;101183.21;1772974;81;21171;-58
2022/06/20 02:43:17;;;;;;;9.98;4.55;;;;;;;18.02;75.50;101186.63;1772992;81;21586;-59
2022/06/20 02:45:46;;;;;;;8.50;3.22;;;;;;;18.17;75.22;101183.46;1772892;81;21177;-59
2022/06/20 02:48:16;;;;;;;6.33;4.20;;;;;;;18.32;74.90;101186.01;1772918;81;21490;-59
2022/06/20 02:50:51;;;;;;;12.78;5.20;;;;;;;18.49;74.71;101176.06;1773021;81;21115;-59
2022/06/20 02:53:23;;;;;;;6.67;4.17;;;;;;;18.70;74.47;101179.11;1772981;81;21092;-59
2022/06/20 02:55:54;;;;;;;8.18;3.92;;;;;;;18.93;74.24;101178.11;1772955;81;21142;-59
2022/06/20 02:58:26;;;;;;;5.80;2.75;;;;;;;19.13;73.79;101174.94;1772975;81;21104;-59
2022/06/20 03:01:00;;;;;;;5.75;2.65;;;;;;;19.27;73.32;101173.98;1772928;81;21538;-59
2022/06/20 03:03:31;;;;;;;7.58;3.40;;;;;;;19.46;73.18;101178.92;1772320;81;21174;-59
2022/06/20 03:06:01;;;;;;;6.20;3.42;;;;;;;19.65;72.89;101169.98;1772313;81;21087;-59
2022/06/20 03:08:31;;;;;;;6.15;4.10;;;;;;;19.74;72.00;101173.02;1772898;81;21123;-59
2022/06/20 03:11:04;;;;;;;12.65;4.53;;;;;;;19.84;71.88;101166.03;1772991;81;21272;-58
2022/06/20 03:13:34;;;;;;;15.07;4.93;;;;;;;20.02;71.87;101166.05;1773251;81;21570;-59
2022/06/20 03:16:04;;;;;;;14.70;6.65;;;;;;;20.20;71.83;101168.38;1772960;81;21620;-58
2022/06/20 03:18:36;;;;;;;26.35;8.95;;;;;;;20.31;71.50;101164.92;1773039;81;21252;-58
2022/06/20 03:21:05;;;;;;;22.20;11.08;;;;;;;20.34;71.11;101168.19;1771816;81;21094;-59
2022/06/20 03:23:35;;;;;;;34.67;13.98;;;;;;;20.29;70.39;101167.70;1772933;81;21783;-58
2022/06/20 03:26:07;;;;;;;33.13;12.43;;;;;;;20.12;70.00;101167.59;1772946;81;21586;-58
2022/06/20 03:28:36;;;;;;;28.10;12.98;;;;;;;19.98;69.76;101164.57;1772937;81;21075;-59
2022/06/20 03:31:06;;;;;;;20.57;10.15;;;;;;;19.99;70.01;101154.27;1772905;81;21173;-58
2022/06/20 03:33:35;;;;;;;23.00;9.25;;;;;;;20.05;70.23;101155.64;1773033;81;21542;-59
2022/06/20 03:36:22;;;;;;;11.78;6.87;;;;;;;20.13;70.35;101151.06;1772852;81;21163;-58
2022/06/20 03:38:51;;;;;;;16.62;7.10;;;;;;;20.13;70.21;101147.91;1772302;79;21103;-58
2022/06/20 03:41:23;;;;;;;14.90;5.58;;;;;;;19.99;69.77;101140.91;1772936;81;21099;-59
2022/06/20 03:44:10;;;;;;;9.48;4.33;;;;;;;19.90;69.68;101147.38;1772949;81;21173;-59
2022/06/20 03:46:47;;;;;;;14.10;4.78;;;;;;;19.82;69.55;101147.92;1772590;81;21063;-59
2022/06/20 03:49:30;;;;;;;15.30;4.80;;;;;;;19.75;69.55;101156.84;1772644;81;21100;-58
2022/06/20 03:52:05;;;;;;;9.58;4.47;;;;;;;19.81;69.76;101151.09;1772720;81;21594;-58
2022/06/20 03:54:51;;;;;;;15.25;4.00;;;;;;;20.01;70.24;101151.45;1772917;81;21551;-59
2022/06/20 03:57:25;;;;;;;7.45;4.42;;;;;;;20.23;70.33;101149.41;1772488;81;21174;-59
2022/06/20 03:59:57;;;;;;;11.68;5.03;;;;;;;20.44;70.06;101147.84;1769204;81;21186;-58
2022/06/20 04:02:40;;;;;;;18.12;5.25;;;;;;;20.67;69.78;101137.27;1772620;81;21064;-59
2022/06/20 04:05:20;;;;;;;9.85;5.08;;;;;;;20.85;69.45;101140.38;1771576;81;21075;-58
2022/06/20 04:07:51;;;;;;;8.93;4.17;;;;;;;21.05;68.66;101134.84;1773060;81;21075;-58
2022/06/20 04:13:21;;;;;;;13.08;5.30;;;;;;;21.53;68.17;101126.64;1772933;81;21095;-59
2022/06/20 04:15:55;;;;;;;15.70;6.30;;;;;;;21.87;67.65;101127.95;1772733;81;21134;-58
2022/06/20 04:18:30;;;;;;;12.75;5.78;;;;;;;22.18;67.29;101133.02;1773312;81;21173;-57
2022/06/20 04:21:07;;;;;;;17.82;9.78;;;;;;;22.53;66.77;101135.14;1773602;81;21094;-57
2022/06/20 04:23:42;;;;;;;18.23;8.58;;;;;;;22.95;66.21;101137.88;1773511;80;21090;-60
2022/06/20 04:26:36;;;;;;;19.62;9.63;;;;;;;23.37;65.53;101136.55;1771967;81;21172;-59
2022/06/20 04:29:08;;;;;;;25.68;13.00;;;;;;;23.78;64.79;101136.58;1773559;81;21533;-59
2022/06/20 04:31:45;;;;;;;24.37;11.95;;;;;;;24.24;63.63;101145.93;1772495;81;21039;-57
2022/06/20 04:34:20;;;;;;;25.48;10.30;;;;;;;24.49;62.24;101137.80;1773290;81;21047;-56
2022/06/20 04:37:08;;;;;;;19.25;9.78;;;;;;;24.81;62.12;101144.28;1773709;81;21145;-58
2022/06/20 04:39:51;;;;;;;18.52;9.50;;;;;;;25.21;61.85;101145.06;1773536;81;21566;-59
2022/06/20 04:42:25;;;;;;;19.17;9.85;;;;;;;25.62;61.36;101148.39;1773596;81;21133;-59
2022/06/20 04:44:57;;;;;;;16.27;6.92;;;;;;;26.06;60.84;101145.92;1773526;81;21656;-58
2022/06/20 04:47:50;;;;;;;16.97;8.05;;;;;;;26.45;60.06;101146.14;1773438;81;21043;-58
2022/06/20 04:50:21;;;;;;;23.57;7.95;;;;;;;26.73;59.29;101142.91;1773624;81;21134;-58
2022/06/20 04:52:52;;;;;;;9.50;3.33;;;;;;;27.17;58.78;101152.36;1773432;81;21039;-60
2022/06/20 04:55:25;;;;;;;6.05;3.05;;;;;;;27.21;57.58;101145.63;1773507;81;21137;-58
2022/06/20 04:57:56;;;;;;;7.08;3.80;;;;;;;26.95;57.09;101149.16;1773633;81;21067;-58
2022/06/20 05:00:27;;;;;;;4.42;2.20;;;;;;;26.64;56.85;101151.42;1773503;81;21516;-60
2022/06/20 05:02:58;;;;;;;3.52;2.55;;;;;;;26.39;56.74;101147.60;1773549;81;21075;-57
2022/06/20 05:05:29;;;;;;;2.65;2.20;;;;;;;26.55;56.66;101154.52;1773437;81;21074;-59
2022/06/20 05:08:00;;;;;;;8.10;2.47;;;;;;;27.03;56.34;101148.87;1773674;81;21063;-58
2022/06/20 05:10:31;;;;;;;5.85;1.70;;;;;;;27.61;56.00;101149.61;1773577;81;21129;-59
2022/06/20 05:13:09;;;;;;;4.83;2.33;;;;;;;27.84;55.56;101150.38;1773542;81;21142;-59
2022/06/20 05:15:46;;;;;;;7.95;2.25;;;;;;;28.20;54.94;101152.39;1773512;81;21554;-58
2022/06/20 05:18:33;;;;;;;6.17;2.72;;;;;;;28.71;54.06;101152.31;1773349;81;21188;-59
2022/06/20 05:21:04;;;;;;;7.92;2.65;;;;;;;29.12;52.79;101153.62;1772945;81;21133;-59
2022/06/20 05:23:38;;;;;;;10.68;2.42;;;;;;;29.64;51.91;101149.14;1771749;81;21141;-59
2022/06/20 05:26:09;;;;;;;7.97;3.83;;;;;;;29.69;51.06;101151.31;1771539;81;21534;-60
2022/06/20 05:28:40;;;;;;;6.42;3.12;;;;;;;29.39;50.66;101150.23;1773034;81;21145;-59
2022/06/20 05:31:11;;;;;;;5.55;2.92;;;;;;;29.00;50.67;101146.89;1773172;81;21059;-59
2022/06/20 05:33:54;;;;;;;6.78;2.92;;;;;;;28.67;50.65;101150.44;1772982;81;21184;-60
2022/06/20 05:36:26;;;;;;;3.45;2.35;;;;;;;28.30;50.63;101148.17;1772681;81;21063;-60
2022/06/20 05:38:57;;;;;;;4.15;2.40;;;;;;;28.04;50.60;101149.13;1772110;81;21130;-60
2022/06/20 05:41:26;;;;;;;7.58;2.55;;;;;;;27.94;50.45;101142.98;1772822;80;21248;-61
2022/06/20 05:43:56;;;;;;;8.70;2.95;;;;;;;28.49;50.25;101146.50;1772960;81;21547;-60
2022/06/20 05:46:30;;;;;;;7.22;3.37;;;;;;;29.01;49.20;101149.44;1772960;81;21588;-59
2022/06/20 05:49:04;;;;;;;5.17;3.10;;;;;;;29.58;48.75;101143.04;1771605;81;21134;-60
2022/06/20 05:51:36;;;;;;;5.72;2.22;;;;;;;30.07;47.68;101145.25;1772910;81;21240;-60
2022/06/20 05:54:20;;;;;;;5.80;2.72;;;;;;;30.49;47.01;101141.25;1773201;81;21071;-60
2022/06/20 05:56:51;;;;;;;4.62;2.00;;;;;;;30.82;46.50;101140.99;1772987;81;21096;-60
2022/06/20 05:59:44;;;;;;;3.45;1.90;;;;;;;31.02;45.72;101143.55;1771036;81;21178;-60
2022/06/20 06:02:17;;;;;;;;;;;;;;;31.32;45.17;101148.53;1775576;81;21110;-60
2022/06/20 06:05:03;;;;;;;3.45;2.47;;;;;;;31.82;45.66;101143.38;1773073;81;20127;-60
2022/06/20 06:07:51;;;;;;;5.28;2.00;;;;;;;32.16;44.91;101139.19;1772480;81;21067;-60
2022/06/20 06:10:38;;;;;;;5.30;2.17;;;;;;;32.60;43.97;101139.56;1771625;81;21636;-59
2022/06/20 06:13:28;;;;;;;3.58;2.10;;;;;;;32.89;42.58;101134.98;1771782;81;21107;-61
2022/06/20 06:18:57;;;;;;;4.53;2.00;;;;;;;33.54;41.10;101131.55;1771584;81;21550;-60
2022/06/20 06:21:28;;;;;;;2.65;2.00;;;;;;;33.22;39.61;101135.79;1755468;82;21066;-60
2022/06/20 06:23:59;;;;;;;4.20;2.20;;;;;;;32.85;39.01;101133.67;1757512;82;21133;-59
2022/06/20 06:26:28;;;;;;;6.45;2.00;;;;;;;32.57;37.87;101129.00;1757638;82;21070;-59
2022/06/20 06:28:57;;;;;;;3.12;1.80;;;;;;;32.89;37.99;101126.81;1757459;82;21066;-59
2022/06/20 06:31:31;;;;;;;3.77;2.47;;;;;;;32.67;37.18;101126.83;1757552;82;21082;-59
2022/06/20 06:34:15;;;;;;;2.98;2.35;;;;;;;32.83;37.39;101114.81;1756525;82;21070;-57
2022/06/20 06:36:46;;;;;;;3.10;2.00;;;;;;;33.02;36.90;101119.25;1755795;82;21039;-56
2022/06/20 06:39:18;;;;;;;8.23;2.10;;;;;;;32.53;36.49;101123.62;1757740;82;21042;-57
2022/06/20 06:41:49;;;;;;;4.45;2.08;;;;;;;32.61;36.90;101122.17;1757762;81;21066;-59
2022/06/20 06:44:26;;;;;;;4.33;2.77;;;;;;;32.68;36.10;101122.22;1757607;82;21058;-60
2022/06/20 06:46:57;;;;;;;5.65;2.35;;;;;;;32.56;35.62;101118.33;1757636;82;21121;-59
2022/06/20 06:49:47;;;;;;;3.87;2.55;;;;;;;32.74;36.33;101112.41;1757505;82;21090;-59
2022/06/20 06:52:27;;;;;;;4.53;2.30;;;;;;;32.98;35.95;101110.62;1757507;82;21529;-58
2022/06/20 06:54:59;;;;;;;3.98;2.08;;;;;;;33.26;35.95;101114.70;1757544;81;21094;-58
2022/06/20 06:57:31;;;;;;;2.70;2.00;;;;;;;33.41;35.62;101115.11;1757725;82;21058;-58
2022/06/20 07:00:09;;;;;;;3.73;2.07;;;;;;;33.62;34.80;101117.71;1757567;81;21074;-59
2022/06/20 07:02:40;;;;;;;3.85;1.95;;;;;;;33.52;34.03;101115.06;1757508;82;21156;-58
2022/06/20 07:05:27;;;;;;;5.93;2.37;;;;;;;33.62;33.98;101108.69;1757799;82;21164;-59
2022/06/20 07:08:11;;;;;;;3.70;2.22;;;;;;;33.71;33.97;101107.50;1757057;80;21081;-59
2022/06/20 07:10:46;;;;;;;4.60;2.00;;;;;;;33.85;33.65;101109.23;1756881;80;21137;-60
2022/06/20 07:13:17;;;;;;;2.42;1.60;;;;;;;33.87;33.20;101065.87;1757443;81;21071;-60
2022/06/20 07:15:48;;;;;;;3.70;1.80;;;;;;;34.04;32.51;101095.31;1757847;82;21066;-58
2022/06/20 07:18:22;;;;;;;3.15;2.02;;;;;;;33.95;31.94;101111.57;1757535;82;21132;-58
2022/06/20 07:20:52;;;;;;;6.10;2.20;;;;;;;34.02;31.92;101106.14;1765146;81;21573;-60
2022/06/20 07:23:20;;;;;;;2.67;2.10;;;;;;;34.55;32.21;101108.15;1773405;81;21079;-58
2022/06/20 07:25:51;;;;;;;3.17;2.20;;;;;;;34.68;32.31;101113.64;1773471;81;21071;-60
2022/06/20 07:28:34;;;;;;;4.72;3.30;;;;;;;34.51;32.22;101104.99;1773496;81;21498;-58
2022/06/20 07:31:08;;;;;;;4.08;2.20;;;;;;;34.23;31.73;101096.45;1773416;81;21042;-58
2022/06/20 07:33:42;;;;;;;2.85;1.98;;;;;;;33.88;32.31;101100.31;1772657;81;21141;-58
2022/06/20 07:36:14;;;;;;;3.22;1.77;;;;;;;33.55;32.50;101096.39;1773714;81;21154;-58
2022/06/20 07:38:48;;;;;;;2.10;1.70;;;;;;;33.11;32.68;101108.50;1774052;81;21062;-58
2022/06/20 07:41:23;;;;;;;4.10;2.10;;;;;;;32.91;32.82;101105.63;1772736;81;21129;-59
2022/06/20 07:44:03;;;;;;;9.00;2.25;;;;;;;32.65;32.72;101109.83;1773588;81;21164;-58
2022/06/20 07:46:37;;;;;;;7.00;2.58;;;;;;;32.53;33.00;101103.71;1773017;81;21141;-58
2022/06/20 07:49:09;;;;;;;3.95;2.17;;;;;;;32.59;33.41;101104.31;1773434;81;21561;-58
2022/06/20 07:51:41;;;;;;;5.53;2.30;;;;;;;32.75;33.47;101101.83;1773771;81;21075;-58
2022/06/20 07:54:24;;;;;;;5.33;2.50;;;;;;;32.97;33.12;101098.01;1773710;81;21129;-58
2022/06/20 07:57:01;;;;;;;10.93;2.87;;;;;;;33.11;32.96;101098.09;1773972;81;21518;-58
2022/06/20 07:59:44;;;;;;;9.03;2.62;;;;;;;33.03;33.05;101100.45;1772401;81;21150;-59
2022/06/20 08:02:24;;;;;;;6.15;1.75;;;;;;;32.94;33.20;101092.94;1773829;81;21063;-59
2022/06/20 08:05:12;;;;;;;6.53;1.92;;;;;;;32.61;32.85;101088.10;1773698;81;21150;-59
2022/06/20 08:07:40;;;;;;;10.58;2.98;;;;;;;32.21;33.25;101097.23;1772175;81;21099;-61
2022/06/20 08:10:21;;;;;;;7.70;2.37;;;;;;;32.02;33.50;101092.38;1773728;81;21140;-58
2022/06/20 08:12:56;;;;;;;5.67;1.90;;;;;;;32.07;33.57;101088.59;1773757;81;21130;-58
2022/06/20 08:15:30;;;;;;;4.28;1.80;;;;;;;32.55;33.71;101088.84;1773278;79;21075;-58
2022/06/20 08:18:00;;;;;;;6.28;2.02;;;;;;;33.22;33.43;101086.67;1773677;81;21221;-58
2022/06/20 08:20:31;;;;;;;3.02;2.10;;;;;;;33.92;32.67;101086.05;1773599;81;21102;-59
2022/06/20 08:23:03;;;;;;;4.37;2.00;;;;;;;34.28;31.86;101084.05;1773969;81;21573;-58
2022/06/20 08:25:43;;;;;;;6.92;2.60;;;;;;;34.61;31.79;101075.86;1772403;81;21062;-59
2022/06/20 08:28:18;;;;;;;2.42;1.60;;;;;;;34.50;31.56;101077.32;1773468;81;21063;-59
2022/06/20 08:30:55;;;;;;;6.35;1.70;;;;;;;34.29;31.68;101082.98;1772542;79;21078;-59
2022/06/20 08:33:43;;;;;;;5.15;1.98;;;;;;;33.77;31.58;101079.89;1772091;81;21059;-59
2022/06/20 08:36:23;;;;;;;4.28;2.30;;;;;;;33.42;31.94;101074.47;1773687;81;21577;-60
2022/06/20 08:39:10;;;;;;;4.25;2.17;;;;;;;33.06;32.29;101074.98;1773709;81;21039;-61
2022/06/20 08:42:07;;;;;;;2.15;1.75;;;;;;;32.63;32.33;101073.75;1773561;81;21572;-59
2022/06/20 08:45:07;;;;;;;5.08;1.90;;;;;;;32.26;32.86;101064.80;1773563;81;21216;-60
2022/06/20 08:48:08;;;;;;;4.25;2.22;;;;;;;31.97;33.39;101063.54;1773666;81;21054;-59
2022/06/20 08:51:10;;;;;;;2.47;2.20;;;;;;;31.76;33.73;101052.91;1773373;81;21129;-60
2022/06/20 08:53:58;;;;;;;16.02;2.52;;;;;;;31.71;34.02;101055.39;1773449;81;21557;-59
2022/06/20 08:57:03;;;;;;;5.70;2.62;;;;;;;31.60;34.40;101059.98;1773486;79;21145;-59
2022/06/20 08:59:50;;;;;;;5.10;2.50;;;;;;;31.48;34.63;101055.52;1773619;81;21137;-60
2022/06/20 09:02:38;;;;;;;5.75;2.10;;;;;;;31.41;34.91;101058.64;1772177;81;21137;-59
2022/06/20 09:05:28;;;;;;;3.72;1.75;;;;;;;31.38;35.01;101057.67;1773651;81;21560;-60
2022/06/20 09:08:22;;;;;;;5.08;2.27;;;;;;;31.26;34.88;101054.58;1771764;81;21064;-60
2022/06/20 09:11:08;;;;;;;5.00;2.40;;;;;;;31.22;35.17;101050.55;1773510;81;21568;-59
2022/06/20 09:14:13;;;;;;;3.47;1.90;;;;;;;31.39;34.99;101045.74;1773387;81;21145;-60
2022/06/20 09:17:00;;;;;;;4.75;2.12;;;;;;;31.76;34.88;101046.11;1773511;81;21067;-60
2022/06/20 09:19:43;;;;;;;3.00;2.27;;;;;;;32.14;34.54;101045.92;1773514;81;21525;-59
2022/06/20 09:22:33;;;;;;;6.58;2.30;;;;;;;32.50;34.08;101040.91;1772593;80;21189;-59
2022/06/20 09:25:11;;;;;;;9.85;2.70;;;;;;;32.87;33.49;101036.17;1767903;81;21243;-59
2022/06/20 09:27:48;;;;;;;8.13;1.95;;;;;;;33.14;33.42;101028.16;1772397;81;21059;-58
2022/06/20 09:30:20;;;;;;;11.73;4.70;;;;;;;33.16;33.07;101030.16;1773192;81;21138;-57
2022/06/20 09:33:00;;;;;;;14.70;4.70;;;;;;;32.98;32.96;101027.43;1770396;81;21067;-57
2022/06/20 09:35:47;;;;;;;10.20;4.20;;;;;;;32.66;33.08;101023.44;1750170;81;21063;-57
2022/06/20 09:38:30;;;;;;;5.50;3.15;;;;;;;32.37;33.30;101023.94;1772225;81;21627;-57
2022/06/20 09:41:02;;;;;;;3.50;2.40;;;;;;;32.49;33.41;101022.86;1765578;81;21062;-57
2022/06/20 09:43:56;;;;;;;3.02;2.33;;;;;;;32.79;33.04;101014.50;1773103;81;21067;-57
2022/06/20 09:46:44;;;;;;;4.10;2.02;;;;;;;32.79;32.92;101013.14;1773618;81;21538;-58
2022/06/20 09:49:31;;;;;;;3.55;1.87;;;;;;;32.96;32.88;101011.80;1773477;81;21490;-57
2022/06/20 09:52:35;;;;;;;4.60;1.87;;;;;;;32.85;32.76;101005.51;1773582;81;21066;-57
2022/06/20 09:55:18;;;;;;;4.80;1.98;;;;;;;33.02;32.67;101002.80;1773443;81;21534;-57
2022/06/20 09:57:53;;;;;;;6.03;2.05;;;;;;;32.90;32.13;101005.76;1772959;81;21094;-57
2022/06/20 10:00:24;;;;;;;5.65;1.72;;;;;;;32.75;32.36;100999.06;1773166;81;21071;-58
2022/06/20 10:03:31;;;;;;;5.45;1.62;;;;;;;32.54;32.36;100994.50;1773398;81;21105;-57
2022/06/20 10:06:05;;;;;;;9.68;3.92;;;;;;;32.51;32.57;100992.16;1773581;81;21145;-57
2022/06/20 10:08:37;;;;;;;3.30;2.33;;;;;;;32.77;32.41;100990.69;1773521;81;21188;-57
2022/06/20 10:11:11;;;;;;;9.60;2.20;;;;;;;32.82;32.28;100985.48;1773254;81;21189;-57
2022/06/20 10:13:46;;;;;;;2.75;1.57;;;;;;;33.12;32.16;100978.42;1772494;81;21102;-61
2022/06/20 10:16:17;;;;;;;3.47;1.35;;;;;;;33.19;32.13;100976.57;1772507;81;21150;-58
2022/06/20 10:18:52;;;;;;;3.27;1.50;;;;;;;33.21;31.82;100969.02;1773095;81;21110;-58
2022/06/20 10:21:35;;;;;;;9.38;1.60;;;;;;;33.30;31.69;100969.16;1771323;80;21059;-58
2022/06/20 10:24:21;;;;;;;2.98;1.40;;;;;;;33.41;31.43;100966.37;1742555;82;21156;-57
2022/06/20 10:27:01;;;;;;;3.17;1.40;;;;;;;33.46;31.29;100961.14;1756490;79;21070;-58
2022/06/20 10:29:33;;;;;;;8.83;1.55;;;;;;;33.28;30.92;100957.08;1757543;82;21110;-57
2022/06/20 10:32:20;;;;;;;3.27;1.47;;;;;;;33.20;30.93;100950.95;1757935;82;21070;-57
2022/06/20 10:35:12;;;;;;;4.97;1.60;;;;;;;33.55;31.42;100950.84;1757407;82;21149;-58
2022/06/20 10:37:42;;;;;;;;;;;;;;;33.70;31.09;100946.10;1759358;82;21066;-59
2022/06/20 10:40:39;;;;;;;3.22;2.20;;;;;;;33.73;31.17;100937.47;1757573;82;20125;-59
2022/06/20 10:43:11;;;;;;;3.05;1.60;;;;;;;33.75;31.15;100940.83;1757512;82;21054;-59
2022/06/20 10:45:58;;;;;;;4.00;1.42;;;;;;;33.85;31.21;100934.45;1757744;82;21070;-57
2022/06/20 10:48:45;;;;;;;5.15;1.67;;;;;;;33.56;30.94;100930.17;1757588;82;21201;-57
2022/06/20 10:51:38;;;;;;;2.77;1.45;;;;;;;33.09;31.24;100928.66;1757539;82;21070;-57
2022/06/20 10:54:15;;;;;;;3.20;1.70;;;;;;;32.68;31.24;100929.52;1756491;82;21544;-56
2022/06/20 10:56:52;;;;;;;3.42;1.50;;;;;;;32.50;31.43;100922.36;1756609;79;21529;-57
2022/06/20 10:59:50;;;;;;;3.08;1.77;;;;;;;32.52;31.58;100917.55;1756814;82;21066;-58
2022/06/20 11:02:52;;;;;;;3.15;1.67;;;;;;;32.55;31.61;100916.30;1756922;82;21634;-58
2022/06/20 11:05:31;;;;;;;3.80;1.60;;;;;;;32.48;31.59;100917.60;1757330;82;21575;-59
2022/06/20 11:08:18;;;;;;;3.30;1.82;;;;;;;32.42;31.67;100915.16;1757021;82;21046;-58
2022/06/20 11:10:50;;;;;;;5.67;1.70;;;;;;;32.49;31.89;100909.23;1757527;82;21144;-58
2022/06/20 11:13:30;;;;;;;2.47;1.40;;;;;;;32.45;31.70;100907.13;1757531;82;21137;-58
2022/06/20 11:16:17;;;;;;;2.17;1.52;;;;;;;32.29;31.69;100904.18;1756432;82;21149;-59
2022/06/20 11:18:54;;;;;;;3.02;1.40;;;;;;;32.10;31.54;100904.37;1756982;82;21144;-59
2022/06/20 11:21:32;;;;;;;5.17;1.75;;;;;;;31.92;31.54;100902.92;1757495;82;21145;-59
2022/06/20 11:24:20;;;;;;;3.75;1.72;;;;;;;31.92;32.01;100893.39;1772268;80;21140;-59
2022/06/20 11:26:57;;;;;;;3.95;1.57;;;;;;;31.93;31.96;100901.90;1772541;81;21162;-59
2022/06/20 11:30:02;;;;;;;2.17;1.52;;;;;;;31.89;31.94;100890.22;1772407;81;21110;-59
2022/06/20 11:32:57;;;;;;;3.75;1.40;;;;;;;31.78;31.76;100889.39;1772976;81;21055;-56
2022/06/20 11:35:37;;;;;;;4.33;2.72;;;;;;;31.71;31.88;100884.75;1772805;81;21832;-58
2022/06/20 11:38:42;;;;;;;3.22;1.40;;;;;;;31.74;32.13;100879.41;1772149;81;21139;-58
2022/06/20 11:41:26;;;;;;;8.50;1.82;;;;;;;31.81;32.12;100878.13;1772889;81;21134;-58
2022/06/20 11:44:12;;;;;;;5.15;1.50;;;;;;;31.83;32.36;100877.41;1772167;81;21084;-58
2022/06/20 11:47:09;;;;;;;8.95;2.12;;;;;;;31.91;32.32;100863.14;1772401;81;21039;-58
2022/06/20 11:50:14;;;;;;;5.03;1.45;;;;;;;31.99;32.38;100862.67;1772860;81;21092;-59
2022/06/20 11:52:58;;;;;;;2.35;1.40;;;;;;;32.02;32.59;100856.31;1773009;81;21083;-58
2022/06/20 11:55:30;;;;;;;2.72;1.80;;;;;;;32.05;32.47;100853.73;1772165;81;21201;-58
2022/06/20 11:58:16;;;;;;;2.40;1.65;;;;;;;32.03;32.45;100847.11;1772429;81;21067;-59
2022/06/20 12:01:05;;;;;;;4.17;1.98;;;;;;;32.03;32.51;100844.92;1756169;81;21099;-58
2022/06/20 12:03:45;;;;;;;4.00;1.62;;;;;;;32.00;32.62;100842.55;1769797;81;21145;-58
2022/06/20 12:06:26;;;;;;;2.60;1.42;;;;;;;31.99;32.63;100838.16;1773025;81;21215;-58
2022/06/20 12:08:57;;;;;;;3.55;1.90;;;;;;;31.88;32.56;100835.46;1772868;81;21071;-58
2022/06/20 12:11:44;;;;;;;2.10;1.60;;;;;;;31.82;32.78;100828.93;1773236;81;21119;-58
2022/06/20 12:14:21;;;;;;;4.62;1.90;;;;;;;31.81;32.82;100828.59;1772958;80;21078;-58
2022/06/20 12:16:59;;;;;;;1.90;1.50;;;;;;;31.81;32.85;100828.59;1772783;80;21162;-59